sensor_id;sensor_type;location;lat;lon;timestamp;P1;durP1;ratioP1;P2;durP2;ratioP2
8474;SDS011;4274;52.012;8.448;2023-02-15T00:01:51;50.43;;;9.10;;
8474;SDS011;4274;52.012;8.448;2023-02-15T00:04:18;48.37;;;8.00;;
8474;SDS011;4274;52.012;8.448;2023-02-15T00:06:45;47.97;;;7.20;;
8474;SDS011;4274;52.012;8.448;2023-02-15T00:09:11;47.70;;;7.40;;
8474;SDS011;4274;52.012;8.448;2023-02-15T00:11:37;50.80;;;8.17;;
8474;SDS011;4274;52.012;8.448;2023-02-15T00:14:14;48.43;;;7.93;;
8474;SDS011;4274;52.012;8.448;2023-02-15T00:16:43;46.77;;;7.10;;
8474;SDS011;4274;52.012;8.448;2023-02-15T00:19:10;51.90;;;8.47;;
8474;SDS011;4274;52.012;8.448;2023-02-15T00:21:36;48.90;;;8.10;;
8474;SDS011;4274;52.012;8.448;2023-02-15T00:24:03;45.90;;;7.23;;
8474;SDS011;4274;52.012;8.448;2023-02-15T00:26:31;49.70;;;7.63;;
8474;SDS011;4274;52.012;8.448;2023-02-15T00:28:57;46.40;;;7.23;;
8474;SDS011;4274;52.012;8.448;2023-02-15T00:31:24;50.37;;;7.20;;
8474;SDS011;4274;52.012;8.448;2023-02-15T00:33:50;54.10;;;7.30;;
8474;SDS011;4274;52.012;8.448;2023-02-15T00:36:15;47.70;;;7.97;;
8474;SDS011;4274;52.012;8.448;2023-02-15T00:38:41;46.90;;;7.03;;
8474;SDS011;4274;52.012;8.448;2023-02-15T00:41:07;45.67;;;6.60;;
8474;SDS011;4274;52.012;8.448;2023-02-15T00:43:33;50.53;;;7.73;;
8474;SDS011;4274;52.012;8.448;2023-02-15T00:46:00;47.97;;;7.60;;
8474;SDS011;4274;52.012;8.448;2023-02-15T00:48:26;45.97;;;6.73;;
8474;SDS011;4274;52.012;8.448;2023-02-15T00:50:53;47.57;;;6.63;;
8474;SDS011;4274;52.012;8.448;2023-02-15T00:53:23;48.13;;;7.80;;
8474;SDS011;4274;52.012;8.448;2023-02-15T00:55:50;47.70;;;7.60;;
8474;SDS011;4274;52.012;8.448;2023-02-15T00:58:16;48.97;;;7.33;;
8474;SDS011;4274;52.012;8.448;2023-02-15T01:00:43;48.70;;;7.50;;
8474;SDS011;4274;52.012;8.448;2023-02-15T01:03:09;46.93;;;7.33;;
8474;SDS011;4274;52.012;8.448;2023-02-15T01:05:36;47.33;;;7.73;;
8474;SDS011;4274;52.012;8.448;2023-02-15T01:08:02;47.93;;;7.33;;
8474;SDS011;4274;52.012;8.448;2023-02-15T01:10:28;54.63;;;7.17;;
8474;SDS011;4274;52.012;8.448;2023-02-15T01:12:54;48.07;;;7.63;;
8474;SDS011;4274;52.012;8.448;2023-02-15T01:15:20;46.10;;;7.30;;
8474;SDS011;4274;52.012;8.448;2023-02-15T01:17:46;47.50;;;6.73;;
8474;SDS011;4274;52.012;8.448;2023-02-15T01:20:17;54.23;;;7.70;;
8474;SDS011;4274;52.012;8.448;2023-02-15T01:22:48;46.20;;;6.77;;
8474;SDS011;4274;52.012;8.448;2023-02-15T01:25:15;47.23;;;7.37;;
8474;SDS011;4274;52.012;8.448;2023-02-15T01:27:42;48.13;;;6.30;;
8474;SDS011;4274;52.012;8.448;2023-02-15T01:30:08;49.10;;;7.03;;
8474;SDS011;4274;52.012;8.448;2023-02-15T01:32:35;46.00;;;7.30;;
8474;SDS011;4274;52.012;8.448;2023-02-15T01:35:00;46.87;;;6.73;;
8474;SDS011;4274;52.012;8.448;2023-02-15T01:37:26;47.80;;;8.20;;
8474;SDS011;4274;52.012;8.448;2023-02-15T01:39:52;48.13;;;7.20;;
8474;SDS011;4274;52.012;8.448;2023-02-15T01:42:25;46.40;;;7.10;;
8474;SDS011;4274;52.012;8.448;2023-02-15T01:44:52;51.07;;;6.67;;
8474;SDS011;4274;52.012;8.448;2023-02-15T01:47:34;46.33;;;6.53;;
8474;SDS011;4274;52.012;8.448;2023-02-15T01:52:41;45.80;;;6.50;;
8474;SDS011;4274;52.012;8.448;2023-02-15T01:55:13;48.20;;;6.70;;
8474;SDS011;4274;52.012;8.448;2023-02-15T01:57:40;48.30;;;6.90;;
8474;SDS011;4274;52.012;8.448;2023-02-15T02:00:06;45.60;;;6.40;;
8474;SDS011;4274;52.012;8.448;2023-02-15T02:02:33;48.60;;;7.40;;
8474;SDS011;4274;52.012;8.448;2023-02-15T02:05:00;47.27;;;7.03;;
8474;SDS011;4274;52.012;8.448;2023-02-15T02:07:32;48.10;;;7.23;;
8474;SDS011;4274;52.012;8.448;2023-02-15T02:10:11;48.17;;;7.20;;
8474;SDS011;4274;52.012;8.448;2023-02-15T02:12:39;45.10;;;7.10;;
8474;SDS011;4274;52.012;8.448;2023-02-15T02:15:07;46.20;;;7.80;;
8474;SDS011;4274;52.012;8.448;2023-02-15T02:23:07;48.60;;;7.50;;
8474;SDS011;4274;52.012;8.448;2023-02-15T02:33:57;52.30;;;7.53;;
8474;SDS011;4274;52.012;8.448;2023-02-15T02:36:29;45.07;;;7.03;;
8474;SDS011;4274;52.012;8.448;2023-02-15T02:44:16;48.53;;;7.80;;
8474;SDS011;4274;52.012;8.448;2023-02-15T02:49:35;48.30;;;8.33;;
8474;SDS011;4274;52.012;8.448;2023-02-15T02:52:04;49.13;;;7.13;;
8474;SDS011;4274;52.012;8.448;2023-02-15T02:54:31;46.63;;;7.23;;
8474;SDS011;4274;52.012;8.448;2023-02-15T02:57:01;45.70;;;6.70;;
8474;SDS011;4274;52.012;8.448;2023-02-15T02:59:32;47.60;;;7.70;;
8474;SDS011;4274;52.012;8.448;2023-02-15T03:08:47;45.50;;;6.70;;
8474;SDS011;4274;52.012;8.448;2023-02-15T03:11:15;47.33;;;6.83;;
8474;SDS011;4274;52.012;8.448;2023-02-15T03:13:41;46.10;;;7.03;;
8474;SDS011;4274;52.012;8.448;2023-02-15T03:16:08;46.87;;;7.87;;
8474;SDS011;4274;52.012;8.448;2023-02-15T03:18:53;46.90;;;7.80;;
8474;SDS011;4274;52.012;8.448;2023-02-15T03:21:35;48.50;;;7.87;;
8474;SDS011;4274;52.012;8.448;2023-02-15T03:24:15;49.20;;;7.07;;
8474;SDS011;4274;52.012;8.448;2023-02-15T03:26:46;47.70;;;7.83;;
8474;SDS011;4274;52.012;8.448;2023-02-15T03:29:14;47.10;;;6.90;;
8474;SDS011;4274;52.012;8.448;2023-02-15T03:31:42;47.50;;;7.27;;
8474;SDS011;4274;52.012;8.448;2023-02-15T03:34:12;46.67;;;7.93;;
8474;SDS011;4274;52.012;8.448;2023-02-15T03:39:33;46.07;;;7.63;;
8474;SDS011;4274;52.012;8.448;2023-02-15T03:42:11;53.90;;;7.87;;
8474;SDS011;4274;52.012;8.448;2023-02-15T03:45:03;45.23;;;6.73;;
8474;SDS011;4274;52.012;8.448;2023-02-15T03:47:31;49.87;;;7.50;;
8474;SDS011;4274;52.012;8.448;2023-02-15T03:52:59;47.17;;;7.03;;
8474;SDS011;4274;52.012;8.448;2023-02-15T03:55:29;47.60;;;7.47;;
8474;SDS011;4274;52.012;8.448;2023-02-15T03:57:55;45.87;;;7.40;;
8474;SDS011;4274;52.012;8.448;2023-02-15T04:00:40;46.27;;;6.93;;
8474;SDS011;4274;52.012;8.448;2023-02-15T04:03:41;46.47;;;6.47;;
8474;SDS011;4274;52.012;8.448;2023-02-15T04:06:10;47.60;;;8.00;;
8474;SDS011;4274;52.012;8.448;2023-02-15T04:08:35;48.00;;;7.27;;
8474;SDS011;4274;52.012;8.448;2023-02-15T04:11:19;45.77;;;7.60;;
8474;SDS011;4274;52.012;8.448;2023-02-15T04:13:45;46.80;;;8.00;;
8474;SDS011;4274;52.012;8.448;2023-02-15T04:16:11;47.37;;;7.07;;
8474;SDS011;4274;52.012;8.448;2023-02-15T04:21:22;47.03;;;7.77;;
8474;SDS011;4274;52.012;8.448;2023-02-15T04:24:08;45.60;;;7.50;;
8474;SDS011;4274;52.012;8.448;2023-02-15T04:26:53;47.73;;;7.07;;
8474;SDS011;4274;52.012;8.448;2023-02-15T04:29:19;47.83;;;7.90;;
8474;SDS011;4274;52.012;8.448;2023-02-15T04:31:45;47.30;;;7.10;;
8474;SDS011;4274;52.012;8.448;2023-02-15T04:34:12;46.90;;;7.77;;
8474;SDS011;4274;52.012;8.448;2023-02-15T04:36:38;44.30;;;6.83;;
8474;SDS011;4274;52.012;8.448;2023-02-15T04:39:04;47.50;;;7.30;;
8474;SDS011;4274;52.012;8.448;2023-02-15T04:41:30;46.97;;;6.87;;
8474;SDS011;4274;52.012;8.448;2023-02-15T04:43:56;45.10;;;6.80;;
8474;SDS011;4274;52.012;8.448;2023-02-15T04:46:22;49.10;;;8.60;;
8474;SDS011;4274;52.012;8.448;2023-02-15T04:48:48;51.03;;;10.43;;
8474;SDS011;4274;52.012;8.448;2023-02-15T04:51:13;54.23;;;10.23;;
8474;SDS011;4274;52.012;8.448;2023-02-15T04:53:39;51.43;;;9.07;;
8474;SDS011;4274;52.012;8.448;2023-02-15T04:56:05;50.23;;;9.50;;
8474;SDS011;4274;52.012;8.448;2023-02-15T04:58:30;46.93;;;8.93;;
8474;SDS011;4274;52.012;8.448;2023-02-15T05:00:56;47.97;;;9.10;;
8474;SDS011;4274;52.012;8.448;2023-02-15T05:03:22;48.90;;;8.63;;
8474;SDS011;4274;52.012;8.448;2023-02-15T05:05:48;45.63;;;8.20;;
8474;SDS011;4274;52.012;8.448;2023-02-15T05:08:14;50.77;;;8.87;;
8474;SDS011;4274;52.012;8.448;2023-02-15T05:10:39;45.80;;;7.30;;
8474;SDS011;4274;52.012;8.448;2023-02-15T05:13:05;47.67;;;7.90;;
8474;SDS011;4274;52.012;8.448;2023-02-15T05:15:31;50.30;;;7.93;;
8474;SDS011;4274;52.012;8.448;2023-02-15T05:17:56;48.57;;;7.10;;
8474;SDS011;4274;52.012;8.448;2023-02-15T05:20:22;54.10;;;7.37;;
8474;SDS011;4274;52.012;8.448;2023-02-15T05:22:47;46.40;;;7.63;;
8474;SDS011;4274;52.012;8.448;2023-02-15T05:25:13;44.70;;;7.07;;
8474;SDS011;4274;52.012;8.448;2023-02-15T05:27:57;47.50;;;6.47;;
8474;SDS011;4274;52.012;8.448;2023-02-15T05:30:41;46.10;;;7.20;;
8474;SDS011;4274;52.012;8.448;2023-02-15T05:33:07;45.50;;;7.00;;
8474;SDS011;4274;52.012;8.448;2023-02-15T05:35:33;47.60;;;7.00;;
8474;SDS011;4274;52.012;8.448;2023-02-15T05:38:00;46.73;;;7.23;;
8474;SDS011;4274;52.012;8.448;2023-02-15T05:40:26;47.03;;;6.77;;
8474;SDS011;4274;52.012;8.448;2023-02-15T05:42:51;46.67;;;7.70;;
8474;SDS011;4274;52.012;8.448;2023-02-15T05:45:17;45.50;;;6.53;;
8474;SDS011;4274;52.012;8.448;2023-02-15T05:47:43;46.40;;;7.73;;
8474;SDS011;4274;52.012;8.448;2023-02-15T05:50:08;49.87;;;8.10;;
8474;SDS011;4274;52.012;8.448;2023-02-15T05:52:35;63.87;;;11.93;;
8474;SDS011;4274;52.012;8.448;2023-02-15T05:55:00;56.60;;;10.30;;
8474;SDS011;4274;52.012;8.448;2023-02-15T05:57:27;70.73;;;13.07;;
8474;SDS011;4274;52.012;8.448;2023-02-15T05:59:53;76.27;;;12.80;;
8474;SDS011;4274;52.012;8.448;2023-02-15T06:02:18;79.60;;;15.27;;
8474;SDS011;4274;52.012;8.448;2023-02-15T06:04:44;87.00;;;14.50;;
8474;SDS011;4274;52.012;8.448;2023-02-15T06:07:09;78.67;;;14.43;;
8474;SDS011;4274;52.012;8.448;2023-02-15T06:09:35;83.63;;;14.53;;
8474;SDS011;4274;52.012;8.448;2023-02-15T06:12:01;77.90;;;14.07;;
8474;SDS011;4274;52.012;8.448;2023-02-15T06:14:26;78.10;;;12.67;;
8474;SDS011;4274;52.012;8.448;2023-02-15T06:16:52;75.20;;;13.13;;
8474;SDS011;4274;52.012;8.448;2023-02-15T06:19:17;60.60;;;10.23;;
8474;SDS011;4274;52.012;8.448;2023-02-15T06:21:43;54.97;;;9.50;;
8474;SDS011;4274;52.012;8.448;2023-02-15T06:24:09;55.70;;;9.57;;
8474;SDS011;4274;52.012;8.448;2023-02-15T06:26:35;51.23;;;8.80;;
8474;SDS011;4274;52.012;8.448;2023-02-15T06:29:00;55.27;;;9.33;;
8474;SDS011;4274;52.012;8.448;2023-02-15T06:31:26;61.30;;;10.50;;
8474;SDS011;4274;52.012;8.448;2023-02-15T06:33:52;58.30;;;9.00;;
8474;SDS011;4274;52.012;8.448;2023-02-15T06:36:17;55.50;;;9.90;;
8474;SDS011;4274;52.012;8.448;2023-02-15T06:38:43;56.40;;;9.77;;
8474;SDS011;4274;52.012;8.448;2023-02-15T06:41:08;68.53;;;10.63;;
8474;SDS011;4274;52.012;8.448;2023-02-15T06:43:34;69.33;;;12.77;;
8474;SDS011;4274;52.012;8.448;2023-02-15T06:46:00;57.20;;;10.23;;
8474;SDS011;4274;52.012;8.448;2023-02-15T06:48:26;53.20;;;9.53;;
8474;SDS011;4274;52.012;8.448;2023-02-15T06:50:51;53.40;;;9.13;;
8474;SDS011;4274;52.012;8.448;2023-02-15T06:53:17;48.20;;;8.80;;
8474;SDS011;4274;52.012;8.448;2023-02-15T06:55:42;50.40;;;8.83;;
8474;SDS011;4274;52.012;8.448;2023-02-15T06:58:08;50.17;;;9.43;;
8474;SDS011;4274;52.012;8.448;2023-02-15T07:00:34;52.27;;;9.23;;
8474;SDS011;4274;52.012;8.448;2023-02-15T07:02:59;55.20;;;9.93;;
8474;SDS011;4274;52.012;8.448;2023-02-15T07:05:26;49.57;;;8.00;;
8474;SDS011;4274;52.012;8.448;2023-02-15T07:07:56;47.00;;;7.97;;
8474;SDS011;4274;52.012;8.448;2023-02-15T07:10:22;49.20;;;8.63;;
8474;SDS011;4274;52.012;8.448;2023-02-15T07:12:48;52.77;;;9.13;;
8474;SDS011;4274;52.012;8.448;2023-02-15T07:15:15;50.33;;;8.20;;
8474;SDS011;4274;52.012;8.448;2023-02-15T07:17:42;47.50;;;7.50;;
8474;SDS011;4274;52.012;8.448;2023-02-15T07:20:10;48.17;;;8.20;;
8474;SDS011;4274;52.012;8.448;2023-02-15T07:22:46;46.73;;;7.20;;
8474;SDS011;4274;52.012;8.448;2023-02-15T07:25:13;49.00;;;7.80;;
8474;SDS011;4274;52.012;8.448;2023-02-15T07:27:38;48.87;;;7.73;;
8474;SDS011;4274;52.012;8.448;2023-02-15T07:30:05;45.80;;;6.80;;
8474;SDS011;4274;52.012;8.448;2023-02-15T07:32:32;48.20;;;8.17;;
8474;SDS011;4274;52.012;8.448;2023-02-15T07:34:58;48.90;;;8.60;;
8474;SDS011;4274;52.012;8.448;2023-02-15T07:37:24;47.17;;;7.53;;
8474;SDS011;4274;52.012;8.448;2023-02-15T07:39:50;46.13;;;7.27;;
8474;SDS011;4274;52.012;8.448;2023-02-15T07:42:16;47.50;;;7.73;;
8474;SDS011;4274;52.012;8.448;2023-02-15T07:44:42;49.43;;;8.30;;
8474;SDS011;4274;52.012;8.448;2023-02-15T07:47:08;48.00;;;7.60;;
8474;SDS011;4274;52.012;8.448;2023-02-15T07:49:34;47.10;;;7.20;;
8474;SDS011;4274;52.012;8.448;2023-02-15T07:52:00;50.67;;;8.70;;
8474;SDS011;4274;52.012;8.448;2023-02-15T07:54:26;49.97;;;7.93;;
8474;SDS011;4274;52.012;8.448;2023-02-15T07:56:52;48.70;;;7.23;;
8474;SDS011;4274;52.012;8.448;2023-02-15T07:59:18;47.20;;;7.77;;
8474;SDS011;4274;52.012;8.448;2023-02-15T08:01:43;50.30;;;8.33;;
8474;SDS011;4274;52.012;8.448;2023-02-15T08:04:09;50.60;;;7.93;;
8474;SDS011;4274;52.012;8.448;2023-02-15T08:06:36;52.57;;;8.60;;
8474;SDS011;4274;52.012;8.448;2023-02-15T08:09:06;49.00;;;8.67;;
8474;SDS011;4274;52.012;8.448;2023-02-15T08:11:33;48.30;;;8.43;;
8474;SDS011;4274;52.012;8.448;2023-02-15T08:21:49;50.10;;;7.90;;
8474;SDS011;4274;52.012;8.448;2023-02-15T08:24:17;52.37;;;9.00;;
8474;SDS011;4274;52.012;8.448;2023-02-15T08:26:44;49.20;;;8.60;;
8474;SDS011;4274;52.012;8.448;2023-02-15T08:29:12;50.87;;;8.90;;
8474;SDS011;4274;52.012;8.448;2023-02-15T08:31:38;51.30;;;8.43;;
8474;SDS011;4274;52.012;8.448;2023-02-15T08:34:06;53.10;;;9.43;;
8474;SDS011;4274;52.012;8.448;2023-02-15T08:36:32;53.03;;;8.90;;
8474;SDS011;4274;52.012;8.448;2023-02-15T08:38:58;52.93;;;9.33;;
8474;SDS011;4274;52.012;8.448;2023-02-15T08:41:26;54.30;;;9.30;;
8474;SDS011;4274;52.012;8.448;2023-02-15T08:43:57;54.77;;;10.20;;
8474;SDS011;4274;52.012;8.448;2023-02-15T08:46:26;52.10;;;9.30;;
8474;SDS011;4274;52.012;8.448;2023-02-15T08:48:53;56.17;;;10.07;;
8474;SDS011;4274;52.012;8.448;2023-02-15T08:51:23;56.73;;;10.50;;
8474;SDS011;4274;52.012;8.448;2023-02-15T08:53:52;59.47;;;10.87;;
8474;SDS011;4274;52.012;8.448;2023-02-15T08:56:20;57.20;;;10.20;;
8474;SDS011;4274;52.012;8.448;2023-02-15T08:58:47;52.93;;;9.57;;
8474;SDS011;4274;52.012;8.448;2023-02-15T09:01:20;53.40;;;9.00;;
8474;SDS011;4274;52.012;8.448;2023-02-15T09:03:48;61.07;;;10.53;;
8474;SDS011;4274;52.012;8.448;2023-02-15T09:06:17;59.10;;;11.10;;
8474;SDS011;4274;52.012;8.448;2023-02-15T09:08:43;54.77;;;9.60;;
8474;SDS011;4274;52.012;8.448;2023-02-15T09:11:10;59.07;;;8.90;;
8474;SDS011;4274;52.012;8.448;2023-02-15T09:13:48;52.43;;;9.77;;
8474;SDS011;4274;52.012;8.448;2023-02-15T09:16:18;58.33;;;8.53;;
8474;SDS011;4274;52.012;8.448;2023-02-15T09:18:45;54.70;;;8.13;;
8474;SDS011;4274;52.012;8.448;2023-02-15T09:21:12;52.63;;;8.83;;
8474;SDS011;4274;52.012;8.448;2023-02-15T09:23:43;62.23;;;9.20;;
8474;SDS011;4274;52.012;8.448;2023-02-15T09:26:11;52.20;;;9.10;;
8474;SDS011;4274;52.012;8.448;2023-02-15T09:28:39;51.30;;;8.20;;
8474;SDS011;4274;52.012;8.448;2023-02-15T09:31:09;54.97;;;8.63;;
8474;SDS011;4274;52.012;8.448;2023-02-15T09:33:37;52.17;;;8.60;;
8474;SDS011;4274;52.012;8.448;2023-02-15T09:36:04;56.33;;;8.90;;
8474;SDS011;4274;52.012;8.448;2023-02-15T09:38:30;53.97;;;8.87;;
8474;SDS011;4274;52.012;8.448;2023-02-15T09:41:01;52.60;;;9.17;;
8474;SDS011;4274;52.012;8.448;2023-02-15T09:44:46;56.60;;;8.53;;
8474;SDS011;4274;52.012;8.448;2023-02-15T09:52:45;56.80;;;9.03;;
8474;SDS011;4274;52.012;8.448;2023-02-15T10:01:34;52.50;;;8.80;;
8474;SDS011;4274;52.012;8.448;2023-02-15T10:06:49;55.27;;;9.83;;
8474;SDS011;4274;52.012;8.448;2023-02-15T10:09:34;54.30;;;9.30;;
8474;SDS011;4274;52.012;8.448;2023-02-15T10:12:07;52.27;;;9.10;;
8474;SDS011;4274;52.012;8.448;2023-02-15T10:25:51;57.40;;;11.13;;
8474;SDS011;4274;52.012;8.448;2023-02-15T10:29:00;53.27;;;8.80;;
8474;SDS011;4274;52.012;8.448;2023-02-15T10:31:25;56.57;;;9.97;;
8474;SDS011;4274;52.012;8.448;2023-02-15T10:45:06;61.80;;;11.17;;
8474;SDS011;4274;52.012;8.448;2023-02-15T10:58:05;58.17;;;11.57;;
8474;SDS011;4274;52.012;8.448;2023-02-15T11:00:41;60.90;;;13.07;;
8474;SDS011;4274;52.012;8.448;2023-02-15T11:03:16;60.00;;;12.90;;
8474;SDS011;4274;52.012;8.448;2023-02-15T11:06:03;62.60;;;13.70;;
8474;SDS011;4274;52.012;8.448;2023-02-15T11:08:31;63.90;;;13.40;;
8474;SDS011;4274;52.012;8.448;2023-02-15T11:11:02;66.47;;;14.90;;
8474;SDS011;4274;52.012;8.448;2023-02-15T11:13:33;65.07;;;15.60;;
8474;SDS011;4274;52.012;8.448;2023-02-15T11:16:05;68.20;;;15.23;;
8474;SDS011;4274;52.012;8.448;2023-02-15T11:18:37;67.50;;;15.93;;
8474;SDS011;4274;52.012;8.448;2023-02-15T11:21:06;72.17;;;15.23;;
8474;SDS011;4274;52.012;8.448;2023-02-15T11:23:43;64.70;;;14.20;;
8474;SDS011;4274;52.012;8.448;2023-02-15T11:26:17;67.63;;;15.43;;
8474;SDS011;4274;52.012;8.448;2023-02-15T11:28:51;70.87;;;16.90;;
8474;SDS011;4274;52.012;8.448;2023-02-15T11:31:22;69.33;;;14.83;;
8474;SDS011;4274;52.012;8.448;2023-02-15T11:36:50;68.43;;;15.27;;
8474;SDS011;4274;52.012;8.448;2023-02-15T11:39:19;68.63;;;15.83;;
8474;SDS011;4274;52.012;8.448;2023-02-15T11:41:53;66.83;;;15.40;;
8474;SDS011;4274;52.012;8.448;2023-02-15T11:44:30;65.60;;;14.47;;
8474;SDS011;4274;52.012;8.448;2023-02-15T11:46:59;75.40;;;16.43;;
8474;SDS011;4274;52.012;8.448;2023-02-15T11:49:33;66.43;;;15.60;;
8474;SDS011;4274;52.012;8.448;2023-02-15T11:52:00;68.87;;;16.30;;
8474;SDS011;4274;52.012;8.448;2023-02-15T11:54:30;65.57;;;14.47;;
8474;SDS011;4274;52.012;8.448;2023-02-15T11:57:33;71.47;;;18.70;;
8474;SDS011;4274;52.012;8.448;2023-02-15T12:00:01;71.20;;;17.10;;
8474;SDS011;4274;52.012;8.448;2023-02-15T12:02:32;76.53;;;17.80;;
8474;SDS011;4274;52.012;8.448;2023-02-15T12:05:01;68.97;;;16.30;;
8474;SDS011;4274;52.012;8.448;2023-02-15T12:07:32;70.17;;;16.63;;
8474;SDS011;4274;52.012;8.448;2023-02-15T12:10:10;68.27;;;16.93;;
8474;SDS011;4274;52.012;8.448;2023-02-15T12:13:13;70.03;;;16.90;;
8474;SDS011;4274;52.012;8.448;2023-02-15T12:15:43;70.40;;;16.27;;
8474;SDS011;4274;52.012;8.448;2023-02-15T12:21:02;74.83;;;18.77;;
8474;SDS011;4274;52.012;8.448;2023-02-15T12:23:31;72.17;;;18.50;;
8474;SDS011;4274;52.012;8.448;2023-02-15T12:25:58;73.33;;;17.33;;
8474;SDS011;4274;52.012;8.448;2023-02-15T12:28:34;72.17;;;18.17;;
8474;SDS011;4274;52.012;8.448;2023-02-15T12:31:40;73.50;;;18.47;;
8474;SDS011;4274;52.012;8.448;2023-02-15T12:34:07;71.03;;;18.43;;
8474;SDS011;4274;52.012;8.448;2023-02-15T12:36:43;79.23;;;17.97;;
8474;SDS011;4274;52.012;8.448;2023-02-15T12:39:20;75.27;;;17.80;;
8474;SDS011;4274;52.012;8.448;2023-02-15T12:44:20;73.43;;;19.00;;
8474;SDS011;4274;52.012;8.448;2023-02-15T12:49:44;79.27;;;19.00;;
8474;SDS011;4274;52.012;8.448;2023-02-15T12:52:28;73.97;;;18.20;;
8474;SDS011;4274;52.012;8.448;2023-02-15T12:54:54;74.53;;;18.90;;
8474;SDS011;4274;52.012;8.448;2023-02-15T12:57:25;77.50;;;18.80;;
8474;SDS011;4274;52.012;8.448;2023-02-15T13:00:51;74.77;;;18.13;;
8474;SDS011;4274;52.012;8.448;2023-02-15T13:05:20;74.47;;;19.70;;
8474;SDS011;4274;52.012;8.448;2023-02-15T13:08:17;72.53;;;19.17;;
8474;SDS011;4274;52.012;8.448;2023-02-15T13:10:59;75.50;;;19.47;;
8474;SDS011;4274;52.012;8.448;2023-02-15T13:13:28;78.30;;;18.63;;
8474;SDS011;4274;52.012;8.448;2023-02-15T13:15:58;79.07;;;19.37;;
8474;SDS011;4274;52.012;8.448;2023-02-15T13:18:34;79.30;;;17.70;;
8474;SDS011;4274;52.012;8.448;2023-02-15T13:21:19;82.93;;;17.47;;
8474;SDS011;4274;52.012;8.448;2023-02-15T13:23:53;70.33;;;17.50;;
8474;SDS011;4274;52.012;8.448;2023-02-15T13:26:26;78.33;;;18.63;;
8474;SDS011;4274;52.012;8.448;2023-02-15T13:28:56;78.73;;;17.43;;
8474;SDS011;4274;52.012;8.448;2023-02-15T13:31:26;74.97;;;17.13;;
8474;SDS011;4274;52.012;8.448;2023-02-15T13:33:59;72.80;;;17.10;;
8474;SDS011;4274;52.012;8.448;2023-02-15T13:36:29;72.27;;;16.53;;
8474;SDS011;4274;52.012;8.448;2023-02-15T13:39:12;75.57;;;17.90;;
8474;SDS011;4274;52.012;8.448;2023-02-15T13:44:46;71.50;;;17.03;;
8474;SDS011;4274;52.012;8.448;2023-02-15T13:56:06;76.70;;;18.73;;
8474;SDS011;4274;52.012;8.448;2023-02-15T14:01:34;73.37;;;16.50;;
8474;SDS011;4274;52.012;8.448;2023-02-15T14:04:14;78.97;;;18.10;;
8474;SDS011;4274;52.012;8.448;2023-02-15T14:07:11;72.63;;;17.50;;
8474;SDS011;4274;52.012;8.448;2023-02-15T14:10:15;74.57;;;17.77;;
8474;SDS011;4274;52.012;8.448;2023-02-15T14:15:25;76.53;;;18.13;;
8474;SDS011;4274;52.012;8.448;2023-02-15T14:20:51;78.20;;;16.93;;
8474;SDS011;4274;52.012;8.448;2023-02-15T14:23:43;74.73;;;17.40;;
8474;SDS011;4274;52.012;8.448;2023-02-15T14:26:41;75.73;;;17.40;;
8474;SDS011;4274;52.012;8.448;2023-02-15T14:29:28;71.57;;;15.90;;
8474;SDS011;4274;52.012;8.448;2023-02-15T14:32:23;74.33;;;16.80;;
8474;SDS011;4274;52.012;8.448;2023-02-15T14:35:04;73.37;;;16.77;;
8474;SDS011;4274;52.012;8.448;2023-02-15T14:40:47;77.10;;;16.10;;
8474;SDS011;4274;52.012;8.448;2023-02-15T14:46:36;78.83;;;16.77;;
8474;SDS011;4274;52.012;8.448;2023-02-15T14:49:11;73.70;;;17.27;;
8474;SDS011;4274;52.012;8.448;2023-02-15T14:56:43;70.60;;;17.47;;
8474;SDS011;4274;52.012;8.448;2023-02-15T14:59:13;76.23;;;16.47;;
8474;SDS011;4274;52.012;8.448;2023-02-15T15:01:41;82.03;;;18.50;;
8474;SDS011;4274;52.012;8.448;2023-02-15T15:05:01;78.47;;;17.63;;
8474;SDS011;4274;52.012;8.448;2023-02-15T15:10:43;74.00;;;17.00;;
8474;SDS011;4274;52.012;8.448;2023-02-15T15:12:43;80.47;;;16.93;;
8474;SDS011;4274;52.012;8.448;2023-02-15T15:15:13;79.97;;;17.70;;
8474;SDS011;4274;52.012;8.448;2023-02-15T15:17:56;76.50;;;17.30;;
8474;SDS011;4274;52.012;8.448;2023-02-15T15:25:50;75.33;;;17.10;;
8474;SDS011;4274;52.012;8.448;2023-02-15T15:39:47;72.23;;;15.67;;
8474;SDS011;4274;52.012;8.448;2023-02-15T15:48:31;82.77;;;17.97;;
8474;SDS011;4274;52.012;8.448;2023-02-15T15:50:59;71.30;;;15.63;;
8474;SDS011;4274;52.012;8.448;2023-02-15T15:53:29;70.77;;;16.00;;
8474;SDS011;4274;52.012;8.448;2023-02-15T15:56:00;76.43;;;17.90;;
8474;SDS011;4274;52.012;8.448;2023-02-15T15:58:30;70.00;;;16.10;;
8474;SDS011;4274;52.012;8.448;2023-02-15T16:01:02;76.43;;;18.30;;
8474;SDS011;4274;52.012;8.448;2023-02-15T16:03:32;87.73;;;21.93;;
8474;SDS011;4274;52.012;8.448;2023-02-15T16:05:57;84.60;;;22.83;;
8474;SDS011;4274;52.012;8.448;2023-02-15T16:08:26;79.13;;;19.37;;
8474;SDS011;4274;52.012;8.448;2023-02-15T16:10:51;78.70;;;20.87;;
8474;SDS011;4274;52.012;8.448;2023-02-15T16:13:17;72.07;;;19.60;;
8474;SDS011;4274;52.012;8.448;2023-02-15T16:15:44;72.70;;;18.03;;
8474;SDS011;4274;52.012;8.448;2023-02-15T16:18:18;71.50;;;16.40;;
8474;SDS011;4274;52.012;8.448;2023-02-15T16:20:53;74.20;;;16.27;;
8474;SDS011;4274;52.012;8.448;2023-02-15T16:26:16;79.20;;;16.80;;
8474;SDS011;4274;52.012;8.448;2023-02-15T16:28:59;78.27;;;17.27;;
8474;SDS011;4274;52.012;8.448;2023-02-15T16:31:26;73.30;;;18.63;;
8474;SDS011;4274;52.012;8.448;2023-02-15T16:33:55;82.57;;;21.20;;
8474;SDS011;4274;52.012;8.448;2023-02-15T16:36:21;73.87;;;18.00;;
8474;SDS011;4274;52.012;8.448;2023-02-15T16:41:21;76.80;;;17.77;;
8474;SDS011;4274;52.012;8.448;2023-02-15T16:43:49;69.50;;;15.70;;
8474;SDS011;4274;52.012;8.448;2023-02-15T16:46:18;74.60;;;17.33;;
8474;SDS011;4274;52.012;8.448;2023-02-15T16:48:58;73.27;;;17.20;;
8474;SDS011;4274;52.012;8.448;2023-02-15T16:51:27;71.60;;;17.27;;
8474;SDS011;4274;52.012;8.448;2023-02-15T16:53:55;69.77;;;16.50;;
8474;SDS011;4274;52.012;8.448;2023-02-15T16:56:29;80.93;;;17.13;;
8474;SDS011;4274;52.012;8.448;2023-02-15T16:58:55;75.37;;;16.47;;
8474;SDS011;4274;52.012;8.448;2023-02-15T17:01:23;74.17;;;16.97;;
8474;SDS011;4274;52.012;8.448;2023-02-15T17:04:09;75.93;;;18.30;;
8474;SDS011;4274;52.012;8.448;2023-02-15T17:06:59;76.93;;;17.60;;
8474;SDS011;4274;52.012;8.448;2023-02-15T17:09:52;79.27;;;17.80;;
8474;SDS011;4274;52.012;8.448;2023-02-15T17:17:55;75.97;;;20.00;;
8474;SDS011;4274;52.012;8.448;2023-02-15T17:20:42;108.80;;;28.23;;
8474;SDS011;4274;52.012;8.448;2023-02-15T17:23:20;71.43;;;19.93;;
8474;SDS011;4274;52.012;8.448;2023-02-15T17:25:46;77.57;;;19.37;;
8474;SDS011;4274;52.012;8.448;2023-02-15T17:28:16;78.10;;;18.43;;
8474;SDS011;4274;52.012;8.448;2023-02-15T17:30:47;77.10;;;19.07;;
8474;SDS011;4274;52.012;8.448;2023-02-15T17:36:11;74.60;;;17.80;;
8474;SDS011;4274;52.012;8.448;2023-02-15T17:38:58;79.33;;;17.10;;
8474;SDS011;4274;52.012;8.448;2023-02-15T17:41:31;78.27;;;18.63;;
8474;SDS011;4274;52.012;8.448;2023-02-15T17:43:59;86.87;;;18.30;;
8474;SDS011;4274;52.012;8.448;2023-02-15T17:46:25;70.20;;;15.57;;
8474;SDS011;4274;52.012;8.448;2023-02-15T17:48:53;69.83;;;16.30;;
8474;SDS011;4274;52.012;8.448;2023-02-15T17:51:21;69.17;;;16.23;;
8474;SDS011;4274;52.012;8.448;2023-02-15T17:53:48;69.27;;;16.20;;
8474;SDS011;4274;52.012;8.448;2023-02-15T17:56:33;64.00;;;14.00;;
8474;SDS011;4274;52.012;8.448;2023-02-15T17:59:00;66.33;;;14.20;;
8474;SDS011;4274;52.012;8.448;2023-02-15T18:01:25;67.70;;;14.83;;
8474;SDS011;4274;52.012;8.448;2023-02-15T18:04:13;59.60;;;12.30;;
8474;SDS011;4274;52.012;8.448;2023-02-15T18:06:58;59.00;;;12.47;;
8474;SDS011;4274;52.012;8.448;2023-02-15T18:09:43;62.17;;;11.90;;
8474;SDS011;4274;52.012;8.448;2023-02-15T18:12:28;60.20;;;12.03;;
8474;SDS011;4274;52.012;8.448;2023-02-15T18:14:56;58.00;;;12.00;;
8474;SDS011;4274;52.012;8.448;2023-02-15T18:17:29;56.93;;;11.83;;
8474;SDS011;4274;52.012;8.448;2023-02-15T18:19:58;58.10;;;11.53;;